sensor_id;sensor_type;location;lat;lon;timestamp;pressure;altitude;pressure_sealevel;temperature;humidity
37972;BME280;23794;48.234;8.344;2023-05-12T00:00:02;93977.44;;;8.03;80.82
37972;BME280;23794;48.234;8.344;2023-05-12T00:02:37;93966.19;;;7.97;81.02
37972;BME280;23794;48.234;8.344;2023-05-12T00:05:04;93966.94;;;7.91;80.99
37972;BME280;23794;48.234;8.344;2023-05-12T00:07:31;93973.56;;;7.86;80.94
37972;BME280;23794;48.234;8.344;2023-05-12T00:09:58;93975.88;;;7.80;80.89
37972;BME280;23794;48.234;8.344;2023-05-12T00:12:24;93971.22;;;7.77;80.98
37972;BME280;23794;48.234;8.344;2023-05-12T00:14:51;93973.56;;;7.75;80.94
37972;BME280;23794;48.234;8.344;2023-05-12T00:17:18;93974.72;;;7.70;80.83
37972;BME280;23794;48.234;8.344;2023-05-12T00:19:44;93974.72;;;7.67;80.91
37972;BME280;23794;48.234;8.344;2023-05-12T00:22:11;93968.09;;;7.64;80.91
37972;BME280;23794;48.234;8.344;2023-05-12T00:24:38;93971.97;;;7.60;80.84
37972;BME280;23794;48.234;8.344;2023-05-12T00:27:05;93977.03;;;7.54;80.78
37972;BME280;23794;48.234;8.344;2023-05-12T00:29:33;93976.22;;;7.43;80.82
37972;BME280;23794;48.234;8.344;2023-05-12T00:31:59;93981.25;;;7.37;81.10
37972;BME280;23794;48.234;8.344;2023-05-12T00:34:26;93971.88;;;7.27;81.84
37972;BME280;23794;48.234;8.344;2023-05-12T00:36:54;93966.44;;;7.27;82.27
37972;BME280;23794;48.234;8.344;2023-05-12T00:39:20;93971.91;;;7.38;82.10
37972;BME280;23794;48.234;8.344;2023-05-12T00:41:47;93970.41;;;7.48;81.46
37972;BME280;23794;48.234;8.344;2023-05-12T00:44:15;93976.66;;;7.55;81.85
37972;BME280;23794;48.234;8.344;2023-05-12T00:46:43;93963.41;;;7.54;82.34
37972;BME280;23794;48.234;8.344;2023-05-12T00:49:10;93964.19;;;7.62;81.39
37972;BME280;23794;48.234;8.344;2023-05-12T00:51:38;93963.41;;;7.61;81.49
37972;BME280;23794;48.234;8.344;2023-05-12T00:54:05;93964.94;;;7.51;81.26
37972;BME280;23794;48.234;8.344;2023-05-12T00:56:31;93957.94;;;7.54;81.44
37972;BME280;23794;48.234;8.344;2023-05-12T00:59:06;93950.16;;;7.52;81.52
37972;BME280;23794;48.234;8.344;2023-05-12T01:01:36;93955.59;;;7.49;81.73
37972;BME280;23794;48.234;8.344;2023-05-12T01:04:06;93956.00;;;7.47;81.34
37972;BME280;23794;48.234;8.344;2023-05-12T01:06:44;93955.22;;;7.47;80.96
37972;BME280;23794;48.234;8.344;2023-05-12T01:09:14;93952.06;;;7.41;80.87
37972;BME280;23794;48.234;8.344;2023-05-12T01:11:42;93954.81;;;7.41;81.15
37972;BME280;23794;48.234;8.344;2023-05-12T01:14:09;93950.88;;;7.31;81.59
37972;BME280;23794;48.234;8.344;2023-05-12T01:16:51;93950.84;;;7.20;82.19
37972;BME280;23794;48.234;8.344;2023-05-12T01:20:04;93950.81;;;7.09;83.65
37972;BME280;23794;48.234;8.344;2023-05-12T01:22:08;93948.09;;;7.13;82.21
37972;BME280;23794;48.234;8.344;2023-05-12T01:24:45;93949.31;;;7.23;82.10
37972;BME280;23794;48.234;8.344;2023-05-12T01:27:14;93952.41;;;7.29;82.37
37972;BME280;23794;48.234;8.344;2023-05-12T01:29:44;93951.25;;;7.26;82.60
37972;BME280;23794;48.234;8.344;2023-05-12T01:32:13;93947.75;;;7.18;83.43
37972;BME280;23794;48.234;8.344;2023-05-12T01:34:42;93953.94;;;7.15;83.40
37972;BME280;23794;48.234;8.344;2023-05-12T01:37:10;93954.34;;;7.17;83.57
37972;BME280;23794;48.234;8.344;2023-05-12T01:39:38;93943.88;;;7.23;83.76
37972;BME280;23794;48.234;8.344;2023-05-12T01:42:07;93938.06;;;7.39;83.06
37972;BME280;23794;48.234;8.344;2023-05-12T01:44:33;93939.22;;;7.41;83.01
37972;BME280;23794;48.234;8.344;2023-05-12T01:47:00;93954.81;;;7.41;82.96
37972;BME280;23794;48.234;8.344;2023-05-12T01:49:29;93945.47;;;7.42;83.57
37972;BME280;23794;48.234;8.344;2023-05-12T01:51:56;93951.28;;;7.40;83.04
37972;BME280;23794;48.234;8.344;2023-05-12T01:54:28;93949.69;;;7.29;82.76
37972;BME280;23794;48.234;8.344;2023-05-12T01:56:54;93949.34;;;7.34;82.07
37972;BME280;23794;48.234;8.344;2023-05-12T01:59:21;93944.25;;;7.36;83.37
37972;BME280;23794;48.234;8.344;2023-05-12T02:01:48;93951.69;;;7.46;83.00
37972;BME280;23794;48.234;8.344;2023-05-12T02:04:20;93955.63;;;7.52;81.94
37972;BME280;23794;48.234;8.344;2023-05-12T02:06:48;93951.72;;;7.57;81.89
37972;BME280;23794;48.234;8.344;2023-05-12T02:09:14;93950.16;;;7.52;82.59
37972;BME280;23794;48.234;8.344;2023-05-12T02:11:41;93948.22;;;7.49;82.37
37972;BME280;23794;48.234;8.344;2023-05-12T02:14:08;93946.28;;;7.53;82.61
37972;BME280;23794;48.234;8.344;2023-05-12T02:16:35;93944.66;;;7.45;82.76
37972;BME280;23794;48.234;8.344;2023-05-12T02:19:02;93939.22;;;7.41;83.56
37972;BME280;23794;48.234;8.344;2023-05-12T02:21:31;93949.75;;;7.54;83.37
37972;BME280;23794;48.234;8.344;2023-05-12T02:23:58;93944.31;;;7.54;83.18
37972;BME280;23794;48.234;8.344;2023-05-12T02:26:25;93949.75;;;7.47;83.68
37972;BME280;23794;48.234;8.344;2023-05-12T02:28:52;93937.31;;;7.53;82.27
37972;BME280;23794;48.234;8.344;2023-05-12T02:31:19;93942.78;;;7.49;82.44
37972;BME280;23794;48.234;8.344;2023-05-12T02:33:46;93948.59;;;7.51;82.87
37972;BME280;23794;48.234;8.344;2023-05-12T02:36:13;93947.44;;;7.49;83.41
37972;BME280;23794;48.234;8.344;2023-05-12T02:38:39;93949.41;;;7.52;83.00
37972;BME280;23794;48.234;8.344;2023-05-12T02:41:06;93946.69;;;7.59;82.09
37972;BME280;23794;48.234;8.344;2023-05-12T02:43:33;93942.38;;;7.54;82.43
37972;BME280;23794;48.234;8.344;2023-05-12T02:46:00;93946.28;;;7.57;82.02
37972;BME280;23794;48.234;8.344;2023-05-12T02:48:26;93949.00;;;7.57;82.09
37972;BME280;23794;48.234;8.344;2023-05-12T02:50:53;93946.69;;;7.59;82.29
37972;BME280;23794;48.234;8.344;2023-05-12T02:53:19;93940.06;;;7.64;81.62
37972;BME280;23794;48.234;8.344;2023-05-12T02:55:46;93942.41;;;7.69;80.78
37972;BME280;23794;48.234;8.344;2023-05-12T02:58:13;93951.75;;;7.68;80.47
37972;BME280;23794;48.234;8.344;2023-05-12T03:00:40;93934.22;;;7.65;80.79
37972;BME280;23794;48.234;8.344;2023-05-12T03:03:06;93947.06;;;7.65;81.34
37972;BME280;23794;48.234;8.344;2023-05-12T03:05:33;93946.28;;;7.68;81.32
37972;BME280;23794;48.234;8.344;2023-05-12T03:08:00;93936.19;;;7.76;81.04
37972;BME280;23794;48.234;8.344;2023-05-12T03:10:27;93948.25;;;7.67;82.57
37972;BME280;23794;48.234;8.344;2023-05-12T03:12:54;93940.06;;;7.56;82.64
37972;BME280;23794;48.234;8.344;2023-05-12T03:15:20;93946.28;;;7.57;83.08
37972;BME280;23794;48.234;8.344;2023-05-12T03:17:47;93945.53;;;7.64;83.39
37972;BME280;23794;48.234;8.344;2023-05-12T03:20:14;93943.16;;;7.62;83.27
37972;BME280;23794;48.234;8.344;2023-05-12T03:22:41;93934.97;;;7.59;83.99
37972;BME280;23794;48.234;8.344;2023-05-12T03:25:09;93943.56;;;7.57;83.23
37972;BME280;23794;48.234;8.344;2023-05-12T03:27:36;93939.66;;;7.47;83.57
37972;BME280;23794;48.234;8.344;2023-05-12T03:30:03;93937.28;;;7.46;83.85
37972;BME280;23794;48.234;8.344;2023-05-12T03:32:34;93937.69;;;7.48;83.87
37972;BME280;23794;48.234;8.344;2023-05-12T03:35:00;93933.81;;;7.49;84.73
37972;BME280;23794;48.234;8.344;2023-05-12T03:37:27;93925.63;;;7.60;83.75
37972;BME280;23794;48.234;8.344;2023-05-12T03:39:54;93926.81;;;7.66;82.52
37972;BME280;23794;48.234;8.344;2023-05-12T03:42:21;93925.63;;;7.74;82.16
37972;BME280;23794;48.234;8.344;2023-05-12T03:44:51;93925.63;;;7.67;81.89
37972;BME280;23794;48.234;8.344;2023-05-12T03:47:20;93921.34;;;7.66;82.28
37972;BME280;23794;48.234;8.344;2023-05-12T03:49:47;93928.38;;;7.67;82.80
37972;BME280;23794;48.234;8.344;2023-05-12T03:52:13;93926.44;;;7.78;83.04
37972;BME280;23794;48.234;8.344;2023-05-12T03:54:43;93925.28;;;7.72;82.54
37972;BME280;23794;48.234;8.344;2023-05-12T03:57:11;93924.47;;;7.71;82.87
37972;BME280;23794;48.234;8.344;2023-05-12T03:59:37;93926.03;;;7.76;82.77
37972;BME280;23794;48.234;8.344;2023-05-12T04:02:04;93923.72;;;7.82;81.80
37972;BME280;23794;48.234;8.344;2023-05-12T04:04:33;93928.38;;;7.74;81.79
37972;BME280;23794;48.234;8.344;2023-05-12T04:07:01;93921.75;;;7.68;82.58
37972;BME280;23794;48.234;8.344;2023-05-12T04:09:30;93923.31;;;7.69;83.06
37972;BME280;23794;48.234;8.344;2023-05-12T04:11:57;93920.19;;;7.67;83.75
37972;BME280;23794;48.234;8.344;2023-05-12T04:14:24;93920.97;;;7.67;83.97
37972;BME280;23794;48.234;8.344;2023-05-12T04:17:07;93917.09;;;7.72;83.65
37972;BME280;23794;48.234;8.344;2023-05-12T04:19:33;93915.53;;;7.71;84.43
37972;BME280;23794;48.234;8.344;2023-05-12T04:22:00;93919.03;;;7.75;84.13
37972;BME280;23794;48.234;8.344;2023-05-12T04:24:28;93921.34;;;7.80;83.93
37972;BME280;23794;48.234;8.344;2023-05-12T04:26:56;93920.97;;;7.85;84.20
37972;BME280;23794;48.234;8.344;2023-05-12T04:29:23;93929.94;;;7.82;83.65
37972;BME280;23794;48.234;8.344;2023-05-12T04:31:50;93929.53;;;7.84;83.34
37972;BME280;23794;48.234;8.344;2023-05-12T04:34:19;93929.53;;;7.84;83.43
37972;BME280;23794;48.234;8.344;2023-05-12T04:36:45;93938.50;;;7.95;82.90
37972;BME280;23794;48.234;8.344;2023-05-12T04:39:12;93921.72;;;8.04;82.51
37972;BME280;23794;48.234;8.344;2023-05-12T04:41:39;93928.75;;;7.98;82.97
37972;BME280;23794;48.234;8.344;2023-05-12T04:44:06;93926.41;;;8.03;82.71
37972;BME280;23794;48.234;8.344;2023-05-12T04:46:33;93932.63;;;8.11;82.54
37972;BME280;23794;48.234;8.344;2023-05-12T04:49:00;93936.16;;;8.19;81.69
37972;BME280;23794;48.234;8.344;2023-05-12T04:51:26;93933.03;;;8.13;82.35
37972;BME280;23794;48.234;8.344;2023-05-12T04:53:53;93939.25;;;8.10;82.70
37972;BME280;23794;48.234;8.344;2023-05-12T04:56:20;93940.06;;;8.03;83.17
37972;BME280;23794;48.234;8.344;2023-05-12T04:58:47;93939.66;;;8.09;82.90
37972;BME280;23794;48.234;8.344;2023-05-12T05:01:14;93945.50;;;8.07;82.81
37972;BME280;23794;48.234;8.344;2023-05-12T05:03:42;93947.47;;;8.21;82.91
37972;BME280;23794;48.234;8.344;2023-05-12T05:06:08;93951.31;;;8.34;82.64
37972;BME280;23794;48.234;8.344;2023-05-12T05:08:35;93952.50;;;8.33;82.42
37972;BME280;23794;48.234;8.344;2023-05-12T05:11:02;93954.06;;;8.27;82.32
37972;BME280;23794;48.234;8.344;2023-05-12T05:13:30;93961.06;;;8.39;82.26
37972;BME280;23794;48.234;8.344;2023-05-12T05:15:56;93961.41;;;8.48;81.81
37972;BME280;23794;48.234;8.344;2023-05-12T05:18:24;93958.66;;;8.56;81.97
37972;BME280;23794;48.234;8.344;2023-05-12T05:20:52;93954.75;;;8.67;81.30
37972;BME280;23794;48.234;8.344;2023-05-12T05:23:21;93956.69;;;8.74;81.77
37972;BME280;23794;48.234;8.344;2023-05-12T05:25:48;93960.16;;;8.78;81.69
37972;BME280;23794;48.234;8.344;2023-05-12T05:28:15;93957.84;;;8.80;81.78
37972;BME280;23794;48.234;8.344;2023-05-12T05:30:42;93960.16;;;8.89;81.32
37972;BME280;23794;48.234;8.344;2023-05-12T05:33:10;93953.13;;;8.92;82.08
37972;BME280;23794;48.234;8.344;2023-05-12T05:35:40;93958.53;;;9.06;81.54
37972;BME280;23794;48.234;8.344;2023-05-12T05:38:08;93961.56;;;9.26;80.64
37972;BME280;23794;48.234;8.344;2023-05-12T05:40:36;93960.34;;;9.38;80.30
37972;BME280;23794;48.234;8.344;2023-05-12T05:43:18;93953.66;;;9.46;79.75
37972;BME280;23794;48.234;8.344;2023-05-12T05:45:45;93953.66;;;9.46;79.30
37972;BME280;23794;48.234;8.344;2023-05-12T05:48:14;93953.66;;;9.46;79.38
37972;BME280;23794;48.234;8.344;2023-05-12T05:50:41;93959.06;;;9.57;79.34
37972;BME280;23794;48.234;8.344;2023-05-12T05:53:08;93955.53;;;9.60;78.91
37972;BME280;23794;48.234;8.344;2023-05-12T05:55:35;93962.59;;;9.54;79.23
37972;BME280;23794;48.234;8.344;2023-05-12T05:58:03;93964.94;;;9.52;78.60
37972;BME280;23794;48.234;8.344;2023-05-12T06:00:30;93964.59;;;9.46;79.23
37972;BME280;23794;48.234;8.344;2023-05-12T06:02:56;93963.38;;;9.51;78.43
37972;BME280;23794;48.234;8.344;2023-05-12T06:05:23;93961.09;;;9.46;78.80
37972;BME280;23794;48.234;8.344;2023-05-12T06:07:50;93969.22;;;9.57;78.91
37972;BME280;23794;48.234;8.344;2023-05-12T06:10:16;93958.25;;;9.60;78.20
37972;BME280;23794;48.234;8.344;2023-05-12T06:12:43;93964.53;;;9.57;78.83
37972;BME280;23794;48.234;8.344;2023-05-12T06:15:10;93961.78;;;9.61;78.72
37972;BME280;23794;48.234;8.344;2023-05-12T06:17:37;93961.31;;;9.73;77.97
37972;BME280;23794;48.234;8.344;2023-05-12T06:20:04;93971.84;;;9.75;77.50
37972;BME280;23794;48.234;8.344;2023-05-12T06:22:32;93967.97;;;9.69;78.25
37972;BME280;23794;48.234;8.344;2023-05-12T06:25:01;93966.38;;;9.71;78.26
37972;BME280;23794;48.234;8.344;2023-05-12T06:27:28;93978.03;;;9.86;79.04
37972;BME280;23794;48.234;8.344;2023-05-12T06:29:54;93971.34;;;9.91;78.78
37972;BME280;23794;48.234;8.344;2023-05-12T06:32:21;93977.13;;;10.00;78.07
37972;BME280;23794;48.234;8.344;2023-05-12T06:34:47;93981.09;;;9.92;77.45
37972;BME280;23794;48.234;8.344;2023-05-12T06:37:14;93974.78;;;10.02;77.92
37972;BME280;23794;48.234;8.344;2023-05-12T06:39:41;93973.53;;;10.10;78.21
37972;BME280;23794;48.234;8.344;2023-05-12T06:42:07;93968.69;;;10.25;76.87
37972;BME280;23794;48.234;8.344;2023-05-12T06:44:40;93972.63;;;10.28;76.96
37972;BME280;23794;48.234;8.344;2023-05-12T06:47:08;93975.72;;;10.30;77.61
37972;BME280;23794;48.234;8.344;2023-05-12T06:49:34;93976.00;;;10.43;77.24
37972;BME280;23794;48.234;8.344;2023-05-12T06:52:03;93963.38;;;10.53;76.33
37972;BME280;23794;48.234;8.344;2023-05-12T06:54:31;93970.69;;;10.67;76.48
37972;BME280;23794;48.234;8.344;2023-05-12T06:56:59;93969.31;;;10.86;76.14
37972;BME280;23794;48.234;8.344;2023-05-12T06:59:25;93971.16;;;11.00;74.68
37972;BME280;23794;48.234;8.344;2023-05-12T07:01:52;93974.69;;;10.97;74.76
37972;BME280;23794;48.234;8.344;2023-05-12T07:04:18;93980.16;;;10.97;74.96
37972;BME280;23794;48.234;8.344;2023-05-12T07:06:45;93979.66;;;11.05;74.56
37972;BME280;23794;48.234;8.344;2023-05-12T07:09:13;93979.88;;;11.22;74.03
37972;BME280;23794;48.234;8.344;2023-05-12T07:11:39;93981.91;;;11.49;74.26
37972;BME280;23794;48.234;8.344;2023-05-12T07:14:06;93980.72;;;11.50;71.99
37972;BME280;23794;48.234;8.344;2023-05-12T07:16:32;93986.34;;;11.66;72.69
37972;BME280;23794;48.234;8.344;2023-05-12T07:18:59;93980.75;;;11.74;71.69
37972;BME280;23794;48.234;8.344;2023-05-12T07:21:26;93979.56;;;11.75;71.60
37972;BME280;23794;48.234;8.344;2023-05-12T07:23:53;93977.25;;;11.73;70.07
37972;BME280;23794;48.234;8.344;2023-05-12T07:26:20;93983.06;;;11.79;71.01
37972;BME280;23794;48.234;8.344;2023-05-12T07:28:49;93979.63;;;11.71;69.54
37972;BME280;23794;48.234;8.344;2023-05-12T07:31:16;93983.69;;;11.59;70.30
37972;BME280;23794;48.234;8.344;2023-05-12T07:33:42;93983.91;;;11.45;70.66
37972;BME280;23794;48.234;8.344;2023-05-12T07:36:09;93985.56;;;11.39;72.11
37972;BME280;23794;48.234;8.344;2023-05-12T07:38:35;93980.38;;;11.44;71.27
37972;BME280;23794;48.234;8.344;2023-05-12T07:41:02;93982.25;;;11.51;72.16
37972;BME280;23794;48.234;8.344;2023-05-12T07:43:33;93979.06;;;11.56;70.26
37972;BME280;23794;48.234;8.344;2023-05-12T07:45:59;93982.69;;;11.15;70.22
37972;BME280;23794;48.234;8.344;2023-05-12T07:48:26;93983.34;;;10.92;70.80
37972;BME280;23794;48.234;8.344;2023-05-12T07:50:53;93984.31;;;10.74;71.62
37972;BME280;23794;48.234;8.344;2023-05-12T07:53:19;93981.81;;;10.49;72.63
37972;BME280;23794;48.234;8.344;2023-05-12T07:55:46;93981.53;;;10.36;73.25
37972;BME280;23794;48.234;8.344;2023-05-12T07:58:13;93991.38;;;10.30;74.41
37972;BME280;23794;48.234;8.344;2023-05-12T08:00:39;93977.50;;;10.48;73.34
37972;BME280;23794;48.234;8.344;2023-05-12T08:03:06;93979.34;;;10.62;74.07
37972;BME280;23794;48.234;8.344;2023-05-12T08:05:33;93975.50;;;10.90;73.41
37972;BME280;23794;48.234;8.344;2023-05-12T08:07:59;93985.03;;;11.16;73.74
37972;BME280;23794;48.234;8.344;2023-05-12T08:10:26;93980.88;;;11.35;72.89
37972;BME280;23794;48.234;8.344;2023-05-12T08:12:55;93988.16;;;11.49;71.90
37972;BME280;23794;48.234;8.344;2023-05-12T08:15:21;93979.50;;;11.51;71.19
37972;BME280;23794;48.234;8.344;2023-05-12T08:17:48;93981.38;;;11.27;71.08
37972;BME280;23794;48.234;8.344;2023-05-12T08:20:15;93978.72;;;11.19;72.06
37972;BME280;23794;48.234;8.344;2023-05-12T08:22:41;93981.47;;;11.50;71.73
37972;BME280;23794;48.234;8.344;2023-05-12T08:25:09;93986.41;;;11.63;71.91
37972;BME280;23794;48.234;8.344;2023-05-12T08:27:43;93984.50;;;11.87;71.31
37972;BME280;23794;48.234;8.344;2023-05-12T08:30:12;93986.47;;;11.87;70.52
37972;BME280;23794;48.234;8.344;2023-05-12T08:32:39;93986.78;;;11.92;68.73
37972;BME280;23794;48.234;8.344;2023-05-12T08:35:05;93987.25;;;11.87;67.51
37972;BME280;23794;48.234;8.344;2023-05-12T08:37:32;93992.41;;;11.54;69.67
37972;BME280;23794;48.234;8.344;2023-05-12T08:40:00;93992.38;;;11.85;68.65
37972;BME280;23794;48.234;8.344;2023-05-12T08:42:37;93986.50;;;11.83;66.65
37972;BME280;23794;48.234;8.344;2023-05-12T08:45:06;93993.38;;;11.67;67.62
37972;BME280;23794;48.234;8.344;2023-05-12T08:47:33;93995.78;;;11.93;68.15
37972;BME280;23794;48.234;8.344;2023-05-12T08:50:02;93994.53;;;11.97;66.48
37972;BME280;23794;48.234;8.344;2023-05-12T08:52:31;93991.88;;;12.18;67.87
37972;BME280;23794;48.234;8.344;2023-05-12T08:54:58;93992.03;;;12.82;67.48
37972;BME280;23794;48.234;8.344;2023-05-12T09:30:55;93978.94;;;12.66;63.47
37972;BME280;23794;48.234;8.344;2023-05-12T09:33:21;93978.34;;;12.78;65.27
37972;BME280;23794;48.234;8.344;2023-05-12T09:35:48;93981.75;;;13.06;62.79
37972;BME280;23794;48.234;8.344;2023-05-12T09:38:14;93975.66;;;13.55;62.36
37972;BME280;23794;48.234;8.344;2023-05-12T09:40:41;93972.69;;;14.02;61.65
37972;BME280;23794;48.234;8.344;2023-05-12T09:43:11;93976.06;;;13.73;58.40
37972;BME280;23794;48.234;8.344;2023-05-12T09:45:40;93973.97;;;13.41;58.82
37972;BME280;23794;48.234;8.344;2023-05-12T09:48:10;93969.66;;;13.40;58.55
37972;BME280;23794;48.234;8.344;2023-05-12T09:50:48;93969.41;;;13.34;58.80
37972;BME280;23794;48.234;8.344;2023-05-12T09:53:16;93970.81;;;13.42;57.98
37972;BME280;23794;48.234;8.344;2023-05-12T09:55:46;93969.03;;;13.52;59.06
37972;BME280;23794;48.234;8.344;2023-05-12T09:58:16;93973.06;;;13.84;60.66
37972;BME280;23794;48.234;8.344;2023-05-12T10:00:43;93967.84;;;14.07;58.59
37972;BME280;23794;48.234;8.344;2023-05-12T10:03:32;93969.75;;;14.10;59.89
37972;BME280;23794;48.234;8.344;2023-05-12T10:06:01;93971.38;;;14.07;61.40
37972;BME280;23794;48.234;8.344;2023-05-12T10:11:34;93977.03;;;13.83;59.53
37972;BME280;23794;48.234;8.344;2023-05-12T10:14:02;93965.06;;;13.90;59.33
37972;BME280;23794;48.234;8.344;2023-05-12T10:16:29;93973.28;;;14.10;60.71
37972;BME280;23794;48.234;8.344;2023-05-12T10:18:57;93970.00;;;14.32;58.86
37972;BME280;23794;48.234;8.344;2023-05-12T10:21:24;93958.81;;;14.39;60.48
37972;BME280;23794;48.234;8.344;2023-05-12T10:23:51;93963.41;;;14.75;58.88
37972;BME280;23794;48.234;8.344;2023-05-12T10:26:19;93964.50;;;14.48;56.91
37972;BME280;23794;48.234;8.344;2023-05-12T10:28:47;93961.03;;;14.61;58.35
37972;BME280;23794;48.234;8.344;2023-05-12T10:31:15;93956.16;;;14.81;57.26
37972;BME280;23794;48.234;8.344;2023-05-12T10:33:42;93957.53;;;15.19;57.86
37972;BME280;23794;48.234;8.344;2023-05-12T10:36:16;93955.63;;;15.58;56.21
37972;BME280;23794;48.234;8.344;2023-05-12T10:38:46;93958.03;;;15.43;56.03
37972;BME280;23794;48.234;8.344;2023-05-12T10:41:13;93959.53;;;15.19;56.46
37972;BME280;23794;48.234;8.344;2023-05-12T10:43:41;93949.72;;;14.72;58.53
37972;BME280;23794;48.234;8.344;2023-05-12T10:51:46;93944.91;;;14.76;56.79
37972;BME280;23794;48.234;8.344;2023-05-12T10:54:40;93948.88;;;14.58;59.16
37972;BME280;23794;48.234;8.344;2023-05-12T10:57:14;93948.72;;;14.49;59.38
37972;BME280;23794;48.234;8.344;2023-05-12T10:59:51;93954.03;;;14.73;59.46
37972;BME280;23794;48.234;8.344;2023-05-12T11:02:22;93947.16;;;15.10;59.31
37972;BME280;23794;48.234;8.344;2023-05-12T11:05:00;93951.88;;;15.10;58.13
37972;BME280;23794;48.234;8.344;2023-05-12T11:07:32;93947.66;;;15.05;59.41
37972;BME280;23794;48.234;8.344;2023-05-12T11:10:02;93953.22;;;15.18;57.76
37972;BME280;23794;48.234;8.344;2023-05-12T11:12:34;93955.03;;;15.25;58.21
37972;BME280;23794;48.234;8.344;2023-05-12T11:15:03;93949.84;;;15.40;58.07
37972;BME280;23794;48.234;8.344;2023-05-12T11:17:30;93946.25;;;15.56;55.97
37972;BME280;23794;48.234;8.344;2023-05-12T11:19:57;93956.41;;;15.72;56.95
37972;BME280;23794;48.234;8.344;2023-05-12T11:22:26;93954.44;;;15.85;56.74
37972;BME280;23794;48.234;8.344;2023-05-12T11:24:52;93954.13;;;15.83;55.07
37972;BME280;23794;48.234;8.344;2023-05-12T11:27:20;93947.91;;;15.66;55.01
37972;BME280;23794;48.234;8.344;2023-05-12T11:29:59;93959.63;;;15.70;56.17
37972;BME280;23794;48.234;8.344;2023-05-12T11:32:28;93958.78;;;15.31;56.65
37972;BME280;23794;48.234;8.344;2023-05-12T11:34:55;93955.22;;;15.73;57.46
37972;BME280;23794;48.234;8.344;2023-05-12T11:37:21;93949.69;;;16.24;56.02
37972;BME280;23794;48.234;8.344;2023-05-12T11:39:48;93949.81;;;16.34;53.95
37972;BME280;23794;48.234;8.344;2023-05-12T11:42:15;93948.28;;;16.68;54.35
37972;BME280;23794;48.234;8.344;2023-05-12T11:44:47;93945.56;;;16.55;53.09
37972;BME280;23794;48.234;8.344;2023-05-12T11:47:15;93947.78;;;16.47;52.80
37972;BME280;23794;48.234;8.344;2023-05-12T11:49:52;93942.66;;;15.98;53.51
37972;BME280;23794;48.234;8.344;2023-05-12T11:52:21;93937.06;;;15.59;54.25
37972;BME280;23794;48.234;8.344;2023-05-12T11:54:54;93952.16;;;14.99;54.97
37972;BME280;23794;48.234;8.344;2023-05-12T11:57:33;93947.50;;;15.12;56.92
37972;BME280;23794;48.234;8.344;2023-05-12T12:00:05;93940.44;;;15.11;55.98
37972;BME280;23794;48.234;8.344;2023-05-12T12:02:34;93953.50;;;14.78;55.41
37972;BME280;23794;48.234;8.344;2023-05-12T12:05:03;93951.50;;;14.32;56.32
37972;BME280;23794;48.234;8.344;2023-05-12T12:07:35;93962.09;;;14.17;58.00
37972;BME280;23794;48.234;8.344;2023-05-12T12:10:13;93961.75;;;14.15;60.25
37972;BME280;23794;48.234;8.344;2023-05-12T12:12:41;93952.34;;;14.46;59.79
37972;BME280;23794;48.234;8.344;2023-05-12T12:15:09;93961.34;;;14.79;59.38
37972;BME280;23794;48.234;8.344;2023-05-12T12:17:36;93958.41;;;14.87;57.69
37972;BME280;23794;48.234;8.344;2023-05-12T12:20:05;93957.28;;;15.13;58.78
37972;BME280;23794;48.234;8.344;2023-05-12T12:22:32;93957.94;;;15.60;57.76
37972;BME280;23794;48.234;8.344;2023-05-12T12:25:00;93951.44;;;15.54;54.84
37972;BME280;23794;48.234;8.344;2023-05-12T12:27:30;93948.91;;;15.59;56.32
37972;BME280;23794;48.234;8.344;2023-05-12T12:29:57;93944.19;;;15.86;55.34
37972;BME280;23794;48.234;8.344;2023-05-12T12:32:25;93947.41;;;15.97;53.81
37972;BME280;23794;48.234;8.344;2023-05-12T12:34:54;93954.88;;;15.84;53.64
37972;BME280;23794;48.234;8.344;2023-05-12T12:37:25;93956.84;;;15.57;54.62
37972;BME280;23794;48.234;8.344;2023-05-12T12:39:53;93956.34;;;15.20;55.91
37972;BME280;23794;48.234;8.344;2023-05-12T12:42:20;93957.63;;;15.15;56.68
37972;BME280;23794;48.234;8.344;2023-05-12T12:44:47;93960.84;;;15.14;55.78
37972;BME280;23794;48.234;8.344;2023-05-12T12:47:16;93958.47;;;14.99;56.89
37972;BME280;23794;48.234;8.344;2023-05-12T12:49:45;93956.44;;;14.87;57.65
37972;BME280;23794;48.234;8.344;2023-05-12T12:52:12;93967.19;;;14.81;59.27
37972;BME280;23794;48.234;8.344;2023-05-12T12:54:39;93963.44;;;15.05;58.80
37972;BME280;23794;48.234;8.344;2023-05-12T12:57:05;93964.66;;;15.04;59.48
37972;BME280;23794;48.234;8.344;2023-05-12T12:59:33;93965.13;;;14.86;60.81
37972;BME280;23794;48.234;8.344;2023-05-12T13:02:00;93974.78;;;14.77;60.24
37972;BME280;23794;48.234;8.344;2023-05-12T13:04:28;93968.03;;;14.32;58.77
37972;BME280;23794;48.234;8.344;2023-05-12T13:06:55;93972.59;;;14.06;59.27
37972;BME280;23794;48.234;8.344;2023-05-12T13:09:22;93981.56;;;13.73;59.72
37972;BME280;23794;48.234;8.344;2023-05-12T13:11:48;93974.72;;;13.62;61.73
37972;BME280;23794;48.234;8.344;2023-05-12T13:14:17;93975.94;;;13.61;61.54
37972;BME280;23794;48.234;8.344;2023-05-12T13:16:46;93980.28;;;13.58;62.44
37972;BME280;23794;48.234;8.344;2023-05-12T13:19:13;93987.28;;;13.63;61.42
37972;BME280;23794;48.234;8.344;2023-05-12T13:21:43;93987.00;;;13.77;62.44
37972;BME280;23794;48.234;8.344;2023-05-12T13:24:09;93985.31;;;13.83;60.71
37972;BME280;23794;48.234;8.344;2023-05-12T13:26:39;93987.19;;;13.86;61.65
37972;BME280;23794;48.234;8.344;2023-05-12T13:29:08;93987.16;;;13.70;61.06
37972;BME280;23794;48.234;8.344;2023-05-12T13:31:35;93982.13;;;13.65;60.32
37972;BME280;23794;48.234;8.344;2023-05-12T13:34:04;93980.66;;;13.60;60.73
37972;BME280;23794;48.234;8.344;2023-05-12T13:36:31;93975.28;;;13.73;61.15
37972;BME280;23794;48.234;8.344;2023-05-12T13:39:00;93980.56;;;13.84;59.92
37972;BME280;23794;48.234;8.344;2023-05-12T13:41:28;93978.81;;;13.73;60.43
37972;BME280;23794;48.234;8.344;2023-05-12T13:43:56;93978.56;;;13.84;60.42
37972;BME280;23794;48.234;8.344;2023-05-12T13:46:23;93983.75;;;13.82;60.88
37972;BME280;23794;48.234;8.344;2023-05-12T13:48:54;93978.94;;;13.86;59.88
37972;BME280;23794;48.234;8.344;2023-05-12T13:51:22;93984.75;;;13.52;60.07